createdAt,value
2019-02-05T00:05:15.867Z,3.77
2019-02-05T00:07:45.046Z,3.71
2019-02-05T00:10:14.373Z,3.78
2019-02-05T00:12:43.543Z,3.74
2019-02-05T00:15:12.294Z,3.72
2019-02-05T00:17:41.458Z,3.68
2019-02-05T00:20:10.825Z,3.61
2019-02-05T00:22:39.993Z,3.68
2019-02-05T00:25:09.488Z,3.77
2019-02-05T00:27:38.933Z,3.69
2019-02-05T00:30:08.411Z,3.64
2019-02-05T00:32:37.578Z,3.74
2019-02-05T00:35:07.379Z,3.76
2019-02-05T00:37:36.564Z,3.68
2019-02-05T00:40:06.805Z,3.68
2019-02-05T00:42:35.990Z,3.68
2019-02-05T00:45:07.535Z,3.64
2019-02-05T00:47:36.782Z,3.60
2019-02-05T00:50:07.205Z,3.59
2019-02-05T00:52:36.393Z,3.66
2019-02-05T00:55:45.579Z,3.68
2019-02-05T00:58:14.748Z,3.66
2019-02-05T01:00:44.250Z,3.67
2019-02-05T01:03:13.423Z,3.65
2019-02-05T01:05:42.614Z,3.69
2019-02-05T01:08:11.867Z,3.70
2019-02-05T01:10:41.437Z,3.74
2019-02-05T01:13:10.597Z,3.65
2019-02-05T01:15:39.810Z,3.64
2019-02-05T01:18:09.101Z,3.62
2019-02-05T01:20:38.595Z,3.61
2019-02-05T01:23:07.781Z,3.58
2019-02-05T01:25:36.983Z,3.61
2019-02-05T01:28:06.170Z,3.62
2019-02-05T01:30:35.358Z,3.66
2019-02-05T01:33:04.550Z,3.66
2019-02-05T01:35:34.029Z,3.64
2019-02-05T01:38:03.233Z,3.67
2019-02-05T01:40:32.435Z,3.68
2019-02-05T01:43:01.642Z,3.65
2019-02-05T01:45:30.823Z,3.68
2019-02-05T01:48:00.325Z,3.66
2019-02-05T01:50:29.531Z,3.68
2019-02-05T01:52:58.768Z,3.64
2019-02-05T01:55:28.261Z,3.63
2019-02-05T01:57:57.525Z,3.71
2019-02-05T02:00:46.991Z,3.68
2019-02-05T02:03:16.184Z,3.70
2019-02-05T02:05:45.379Z,3.82
2019-02-05T02:08:14.581Z,3.75
2019-02-05T02:10:44.019Z,3.72
2019-02-05T02:13:13.200Z,3.71
2019-02-05T02:15:42.387Z,3.79
2019-02-05T02:18:11.851Z,3.72
2019-02-05T02:20:41.215Z,3.68
2019-02-05T02:23:10.424Z,3.68
2019-02-05T02:25:39.603Z,3.71
2019-02-05T02:28:08.805Z,3.76
2019-02-05T02:30:39.457Z,3.70
2019-02-05T02:33:08.827Z,3.77
2019-02-05T02:35:38.257Z,3.74
2019-02-05T02:38:07.472Z,3.78
2019-02-05T02:40:36.647Z,3.85
2019-02-05T02:43:05.835Z,3.83
2019-02-05T02:45:35.317Z,3.89
2019-02-05T02:48:04.549Z,3.78
2019-02-05T02:50:33.987Z,3.77
2019-02-05T02:53:03.194Z,3.66
2019-02-05T02:55:32.685Z,3.57
2019-02-05T02:58:01.916Z,3.58
2019-02-05T03:00:31.373Z,3.60
2019-02-05T03:03:00.690Z,3.62
2019-02-05T03:05:30.055Z,3.72
2019-02-05T03:07:59.325Z,3.58
2019-02-05T03:10:30.297Z,3.46
2019-02-05T03:12:59.914Z,3.27
2019-02-05T03:15:29.145Z,3.20
2019-02-05T03:17:58.311Z,3.19
2019-02-05T03:20:27.830Z,3.09
2019-02-05T03:22:57.476Z,3.16
2019-02-05T03:25:26.892Z,3.20
2019-02-05T03:27:56.250Z,3.27
2019-02-05T03:30:26.026Z,3.33
2019-02-05T03:32:55.608Z,3.25
2019-02-05T03:35:25.165Z,3.17
2019-02-05T03:38:13.426Z,3.11
2019-02-05T03:41:02.453Z,3.07
2019-02-05T03:43:31.932Z,3.03
2019-02-05T03:46:22.073Z,3.08
2019-02-05T03:49:11.705Z,3.06
2019-02-05T03:52:25.344Z,3.11
2019-02-05T03:55:32.594Z,3.05
2019-02-05T03:58:39.821Z,3.00
2019-02-05T04:01:47.295Z,2.91
2019-02-05T04:04:55.501Z,2.83
2019-02-05T04:08:03.010Z,2.95
2019-02-05T04:11:10.273Z,2.85
2019-02-05T04:14:27.109Z,2.97
2019-02-05T04:17:43.490Z,3.02
2019-02-05T04:20:50.750Z,2.93
2019-02-05T04:23:46.440Z,3.01
2019-02-05T04:26:53.687Z,3.04
2019-02-05T04:30:01.188Z,3.09
2019-02-05T04:32:55.538Z,3.07
2019-02-05T04:36:02.776Z,3.07
2019-02-05T04:42:30.875Z,2.99
2019-02-05T04:45:33.358Z,3.01
2019-02-05T04:48:31.012Z,2.88
2019-02-05T04:51:38.268Z,2.75
2019-02-05T04:54:45.527Z,2.73
2019-02-05T04:57:58.084Z,2.76
2019-02-05T05:54:53.559Z,2.67
2019-02-05T05:57:22.743Z,2.69
2019-02-05T05:59:51.911Z,2.70
2019-02-05T06:05:11.169Z,2.66
2019-02-05T06:07:40.334Z,2.72
2019-02-05T06:56:42.312Z,2.75
2019-02-05T07:17:51.880Z,2.85
2019-02-05T07:20:21.053Z,2.85
2019-02-05T07:22:50.233Z,2.88
2019-02-05T07:25:19.596Z,2.91
2019-02-05T07:27:49.075Z,2.93
2019-02-05T07:30:21.102Z,2.90
2019-02-05T07:32:50.317Z,2.96
2019-02-05T07:35:19.493Z,3.02
2019-02-05T08:01:44.550Z,3.31
2019-02-05T08:04:13.753Z,3.47
2019-02-05T08:06:43.259Z,3.48
2019-02-05T08:09:12.458Z,3.62
2019-02-05T08:11:41.923Z,3.69
2019-02-05T08:14:11.086Z,3.59
2019-02-05T08:16:40.635Z,3.59
2019-02-05T08:19:09.803Z,3.65
2019-02-05T08:21:39.009Z,3.71
2019-02-05T08:24:08.259Z,3.61
2019-02-05T10:36:56.397Z,6.07
2019-02-05T10:39:25.581Z,6.00
2019-02-05T11:04:52.442Z,6.03
2019-02-05T11:07:21.897Z,6.30
2019-02-05T11:09:51.106Z,6.45
2019-02-05T11:12:20.338Z,6.49
2019-02-05T11:14:49.936Z,6.43
2019-02-05T11:17:23.028Z,6.43
2019-02-05T12:01:23.344Z,6.94
2019-02-05T12:03:52.526Z,6.63
2019-02-05T12:06:22.764Z,6.51
2019-02-05T12:08:53.674Z,6.40
2019-02-05T12:11:23.277Z,6.36
2019-02-05T12:13:52.434Z,6.49
2019-02-05T12:16:21.616Z,6.29
2019-02-05T12:18:51.049Z,6.42
2019-02-05T12:21:20.230Z,6.39
2019-02-05T12:23:49.392Z,6.29
2019-02-05T12:26:18.836Z,6.26
2019-02-05T12:29:07.342Z,6.16
2019-02-05T12:31:36.525Z,6.26
2019-02-05T12:34:45.066Z,6.32
2019-02-05T12:37:14.246Z,6.10
2019-02-05T12:39:43.412Z,6.24
2019-02-05T12:42:12.884Z,6.64
2019-02-05T12:44:42.080Z,6.74
2019-02-05T12:47:11.256Z,6.56
2019-02-05T12:49:40.628Z,6.44
2019-02-05T12:52:10.192Z,6.61
2019-02-05T12:54:39.390Z,6.78
2019-02-05T12:57:08.554Z,6.71
2019-02-05T12:59:37.764Z,6.79
2019-02-05T13:02:07.217Z,6.72
2019-02-05T13:04:36.584Z,6.59
2019-02-05T13:07:06.254Z,6.67
2019-02-05T13:09:35.449Z,6.59
2019-02-05T13:31:08.454Z,6.61
2019-02-05T13:33:57.794Z,6.59
2019-02-05T13:36:27.052Z,6.50
2019-02-05T13:38:56.532Z,6.54
2019-02-05T13:41:25.692Z,6.47
2019-02-05T13:43:54.890Z,6.51
2019-02-05T13:46:24.047Z,6.57
2019-02-05T13:48:53.265Z,6.65
2019-02-05T13:51:22.415Z,6.81
2019-02-05T13:53:51.608Z,6.91
2019-02-05T13:56:20.764Z,6.94
2019-02-05T13:58:49.947Z,6.92
2019-02-05T14:01:20.302Z,6.88
2019-02-05T14:03:50.046Z,6.64
2019-02-05T14:06:19.231Z,6.70
2019-02-05T14:08:48.835Z,6.86
2019-02-05T14:11:17.988Z,6.59
2019-02-05T14:13:47.153Z,6.64
2019-02-05T14:16:16.632Z,6.71
2019-02-05T14:18:54.882Z,6.77
2019-02-05T14:21:16.703Z,6.84
2019-02-05T14:23:45.898Z,6.86
2019-02-05T14:26:15.083Z,6.61
2019-02-05T14:28:44.257Z,6.64
2019-02-05T14:31:13.746Z,6.54
2019-02-05T14:33:43.002Z,6.60
2019-02-05T14:36:12.462Z,6.62
2019-02-05T14:38:41.631Z,6.53
2019-02-05T14:41:10.819Z,6.50
2019-02-05T14:43:39.984Z,6.54
2019-02-05T14:46:09.198Z,6.50
2019-02-05T14:48:38.392Z,6.43
2019-02-05T14:51:07.845Z,6.23
2019-02-05T14:53:36.999Z,6.34
2019-02-05T14:56:06.370Z,6.42
2019-02-05T14:58:35.806Z,6.41
2019-02-05T15:01:05.457Z,6.39
2019-02-05T15:03:34.912Z,6.34
2019-02-05T15:06:04.095Z,6.25
2019-02-05T15:08:33.264Z,6.31
2019-02-05T15:11:02.469Z,6.39
2019-02-05T15:13:31.894Z,6.44
2019-02-05T15:16:01.089Z,6.48
2019-02-05T15:18:30.539Z,6.47
2019-02-05T15:21:00.042Z,6.45
2019-02-05T15:23:29.206Z,6.46
2019-02-05T15:25:58.414Z,6.50
2019-02-05T15:28:27.584Z,6.36
2019-02-05T15:30:56.770Z,6.30
2019-02-05T15:33:44.863Z,6.31
2019-02-05T15:36:33.262Z,6.30
2019-02-05T15:39:02.511Z,6.18
2019-02-05T15:41:31.698Z,6.10
2019-02-05T15:44:00.925Z,6.08
2019-02-05T15:49:08.141Z,6.10
2019-02-05T15:51:37.612Z,6.02
2019-02-05T15:54:25.710Z,5.99
2019-02-05T15:56:54.899Z,5.92
2019-02-05T15:59:24.072Z,5.88
2019-02-05T16:01:53.240Z,5.88
2019-02-05T16:04:22.411Z,5.90
2019-02-05T16:06:51.617Z,5.81
2019-02-05T16:09:21.944Z,5.78
2019-02-05T16:11:51.757Z,5.74
2019-02-05T16:14:21.225Z,5.69
2019-02-05T16:16:50.782Z,5.60
2019-02-05T16:19:19.966Z,5.59
2019-02-05T16:21:49.209Z,5.57
2019-02-05T16:24:18.377Z,5.57
2019-02-05T16:26:48.411Z,5.55
2019-02-05T16:29:17.573Z,5.53
2019-02-05T16:31:46.763Z,5.53
2019-02-05T16:34:15.946Z,5.52
2019-02-05T16:36:45.176Z,5.54
2019-02-05T16:39:14.442Z,5.55
2019-02-05T16:41:43.880Z,5.54
2019-02-05T16:44:13.368Z,5.51
2019-02-05T16:46:42.532Z,5.52
2019-02-05T16:49:11.809Z,5.51
2019-02-05T16:51:40.976Z,5.49
2019-02-05T16:54:12.440Z,5.50
2019-02-05T16:56:41.841Z,5.41
2019-02-05T16:59:11.043Z,5.39
2019-02-05T17:01:41.583Z,5.34
2019-02-05T17:04:11.139Z,5.32
2019-02-05T17:06:40.859Z,5.29
2019-02-05T17:09:53.943Z,5.29
2019-02-05T17:12:23.223Z,5.21
2019-02-05T17:14:52.416Z,5.23
2019-02-05T17:17:22.237Z,5.23
2019-02-05T17:19:51.723Z,5.24
2019-02-05T17:22:20.898Z,5.18
2019-02-05T17:24:50.096Z,5.26
2019-02-05T17:27:19.271Z,5.17
2019-02-05T17:29:50.266Z,5.15
2019-02-05T17:32:19.628Z,5.09
2019-02-05T17:34:48.895Z,5.11
2019-02-05T17:37:18.931Z,5.11
2019-02-05T17:39:48.147Z,5.25
2019-02-05T17:42:17.583Z,5.18
2019-02-05T17:44:46.870Z,5.19
2019-02-05T17:47:16.267Z,5.11
2019-02-05T17:49:45.570Z,5.12
2019-02-05T17:52:15.024Z,5.17
2019-02-05T17:54:44.245Z,5.25
2019-02-05T17:57:13.975Z,5.11
2019-02-05T17:59:43.255Z,5.09
2019-02-05T18:02:12.598Z,5.05
2019-02-05T18:04:42.482Z,5.03
2019-02-05T18:07:11.663Z,5.19
2019-02-05T18:09:40.888Z,5.27
2019-02-05T18:12:10.082Z,5.37
2019-02-05T18:14:39.804Z,5.42
2019-02-05T18:17:10.679Z,5.25
2019-02-05T18:19:39.967Z,5.08
2019-02-05T18:22:09.267Z,5.01
2019-02-05T18:24:39.652Z,5.04
2019-02-05T18:27:27.906Z,4.96
2019-02-05T18:29:57.102Z,4.96
2019-02-05T18:32:26.631Z,4.96
2019-02-05T18:34:55.813Z,4.99
2019-02-05T18:37:24.981Z,4.96
2019-02-05T18:39:54.178Z,4.91
2019-02-05T18:42:25.364Z,4.92
2019-02-05T18:44:55.196Z,4.88
2019-02-05T18:47:24.683Z,4.98
2019-02-05T18:49:53.956Z,4.98
2019-02-05T18:52:23.120Z,4.93
2019-02-05T18:54:52.317Z,5.02
2019-02-05T18:57:42.556Z,4.89
2019-02-05T19:00:31.807Z,4.83
2019-02-05T19:03:00.973Z,4.78
2019-02-05T19:05:30.552Z,4.65
2019-02-05T19:07:59.719Z,4.72
2019-02-05T19:10:49.586Z,4.67
2019-02-05T19:13:18.775Z,4.69
2019-02-05T19:15:50.100Z,4.79
2019-02-05T19:18:20.097Z,4.92
2019-02-05T19:20:49.337Z,5.01
2019-02-05T19:23:18.737Z,5.15
2019-02-05T19:28:45.094Z,5.17
2019-02-05T19:31:33.234Z,5.12
2019-02-05T19:34:02.714Z,5.15
2019-02-05T19:36:31.996Z,5.18
2019-02-05T19:39:01.162Z,5.10
2019-02-05T19:41:32.148Z,4.95
2019-02-05T19:44:01.351Z,4.74
2019-02-05T19:49:40.491Z,4.69
2019-02-05T19:52:09.684Z,4.90
2019-02-05T19:54:38.855Z,4.92
2019-02-05T19:57:08.154Z,4.77
2019-02-05T20:10:33.889Z,3.97
2019-02-05T20:13:03.058Z,3.99
2019-02-05T20:15:32.507Z,3.95
2019-02-05T20:18:01.951Z,3.76
2019-02-05T20:20:31.858Z,3.57
2019-02-05T20:23:01.057Z,3.45
2019-02-05T20:25:30.532Z,3.42
2019-02-05T20:27:59.979Z,3.32
2019-02-05T20:30:29.451Z,3.17
2019-02-05T20:32:58.921Z,3.05
2019-02-05T20:35:47.186Z,3.00
2019-02-05T20:38:16.406Z,2.94
2019-02-05T20:40:45.860Z,3.03
2019-02-05T20:43:16.886Z,2.93
2019-02-05T20:45:57.914Z,2.93
2019-02-05T20:48:32.810Z,2.97
2019-02-05T20:51:02.082Z,2.80
2019-02-05T20:53:31.459Z,2.59
2019-02-05T20:56:00.654Z,2.55
2019-02-05T21:40:06.052Z,1.81
2019-02-05T21:43:21.266Z,1.84
2019-02-05T21:45:56.717Z,1.85
2019-02-05T21:48:30.877Z,1.80
2019-02-05T22:48:12.241Z,1.05
2019-02-05T22:50:52.736Z,1.05
2019-02-05T22:53:22.236Z,1.05
2019-02-05T22:55:52.102Z,1.04
2019-02-05T22:58:23.817Z,1.05
2019-02-05T23:01:32.836Z,1.10
2019-02-05T23:04:26.547Z,1.11
2019-02-05T23:07:16.684Z,1.18
2019-02-05T23:10:23.974Z,1.21
2019-02-05T23:13:06.547Z,1.17
2019-02-05T23:15:36.452Z,1.09
2019-02-05T23:18:45.009Z,1.12
2019-02-05T23:21:14.576Z,1.11
2019-02-05T23:23:43.754Z,1.20
2019-02-05T23:26:13.224Z,1.16
2019-02-05T23:28:42.427Z,1.15
2019-02-05T23:31:11.617Z,1.16
2019-02-05T23:33:40.815Z,1.22
2019-02-05T23:36:10.020Z,1.22
2019-02-05T23:38:42.193Z,1.46
2019-02-05T23:41:10.955Z,1.43
2019-02-05T23:43:40.388Z,1.32
2019-02-05T23:46:09.589Z,1.23
2019-02-05T23:48:39.029Z,1.19
2019-02-05T23:51:08.532Z,1.18
2019-02-05T23:53:37.975Z,1.14
2019-02-05T23:56:07.526Z,1.08
2019-02-05T23:58:43.947Z,1.02
